Time;durP1;ratioP1;P1;durP2;ratioP2;P2;SDS_P1;SDS_P2;PMS_P1;PMS_P2;Temp;Humidity;BMP_temperature;BMP_pressure;BME280_temperature;BME280_humidity;BME280_pressure;Samples;Min_cycle;Max_cycle;Signal;HPM_P1;HPM_P2
2021/08/29 00:02:10;;;;;;;0.47;0.40;;;;;;;15.68;100.00;100720.09;5179299;28;20040;-80
2021/08/29 00:04:40;;;;;;;0.57;0.50;;;;;;;15.60;100.00;100722.31;5189098;28;20022;-80
2021/08/29 00:07:10;;;;;;;0.75;0.47;;;;;;;15.54;100.00;100722.59;5185214;28;20110;-80
2021/08/29 00:09:41;;;;;;;0.60;0.40;;;;;;;15.43;100.00;100714.44;5196751;28;20056;-80
2021/08/29 00:12:11;;;;;;;0.55;0.50;;;;;;;15.49;100.00;100708.84;5172203;28;20034;-79
2021/08/29 00:14:41;;;;;;;0.40;0.40;;;;;;;15.45;100.00;100711.72;5179122;28;20036;-80
2021/08/29 00:17:12;;;;;;;0.98;0.57;;;;;;;15.51;100.00;100717.50;5193074;28;20036;-80
2021/08/29 00:19:42;;;;;;;0.70;0.57;;;;;;;15.44;100.00;100713.50;5196029;28;20025;-81
2021/08/29 00:22:12;;;;;;;0.90;0.60;;;;;;;15.44;100.00;100710.88;5192066;28;20075;-81
2021/08/29 00:24:43;;;;;;;0.68;0.52;;;;;;;15.49;100.00;100715.88;5172795;28;20026;-81
2021/08/29 00:27:13;;;;;;;0.80;0.50;;;;;;;15.46;100.00;100711.66;5198967;28;20467;-80
2021/08/29 00:29:43;;;;;;;0.77;0.70;;;;;;;15.38;100.00;100702.44;5166352;28;20121;-80
2021/08/29 00:32:14;;;;;;;1.15;0.65;;;;;;;15.46;100.00;100708.16;5171853;28;20580;-80
2021/08/29 00:34:44;;;;;;;1.25;0.77;;;;;;;15.47;100.00;100704.56;5186495;28;20045;-80
2021/08/29 00:37:14;;;;;;;1.33;0.70;;;;;;;15.50;100.00;100697.38;5169227;28;20025;-80
2021/08/29 00:39:45;;;;;;;1.63;0.85;;;;;;;15.44;100.00;100700.34;5172475;28;20694;-80
2021/08/29 00:42:15;;;;;;;2.85;0.90;;;;;;;15.39;100.00;100702.34;5197184;28;20671;-80
2021/08/29 00:44:45;;;;;;;1.42;0.93;;;;;;;15.41;100.00;100699.66;5189333;28;20384;-80
2021/08/29 00:47:16;;;;;;;1.38;0.90;;;;;;;15.45;100.00;100702.03;5186584;28;20112;-80
2021/08/29 00:49:46;;;;;;;1.63;1.00;;;;;;;15.43;100.00;100703.91;5181195;28;20495;-80
2021/08/29 00:52:16;;;;;;;1.55;1.00;;;;;;;15.38;100.00;100700.66;5186952;28;20037;-80
2021/08/29 00:54:46;;;;;;;1.70;1.23;;;;;;;15.40;100.00;100690.88;5191708;28;20032;-80
2021/08/29 00:57:17;;;;;;;2.23;1.10;;;;;;;15.41;100.00;100691.75;5192494;28;20089;-80
2021/08/29 00:59:48;;;;;;;1.30;1.00;;;;;;;15.34;100.00;100695.66;5184527;28;20312;-80
2021/08/29 01:02:25;;;;;;;1.23;1.02;;;;;;;15.36;100.00;100681.44;5172566;28;20112;-80
2021/08/29 01:05:24;;;;;;;1.95;1.10;;;;;;;15.31;100.00;100691.38;5195035;28;20025;-80
2021/08/29 01:07:59;;;;;;;1.30;0.90;;;;;;;15.40;100.00;100680.34;5191247;28;20037;-80
2021/08/29 01:10:30;;;;;;;;;;;;;;;15.45;100.00;100688.88;5195589;28;20033;-80
2021/08/29 01:13:00;;;;;;;1.02;0.95;;;;;;;15.51;100.00;100680.63;5195492;28;20345;-80
2021/08/29 01:15:32;;;;;;;1.63;0.93;;;;;;;15.50;100.00;100684.19;5193476;28;20033;-80
2021/08/29 01:18:03;;;;;;;2.08;1.10;;;;;;;15.48;100.00;100688.69;5194545;28;20030;-81
2021/08/29 01:20:50;;;;;;;1.60;1.20;;;;;;;15.45;100.00;100690.63;5193401;28;20036;-81
2021/08/29 01:23:22;;;;;;;1.05;0.88;;;;;;;15.45;100.00;100694.13;5192407;28;20112;-80
2021/08/29 01:26:01;;;;;;;1.75;1.02;;;;;;;15.40;100.00;100697.94;5194128;28;20036;-81
2021/08/29 01:28:55;;;;;;;1.80;1.08;;;;;;;15.40;100.00;100693.50;5187775;28;20057;-80
2021/08/29 01:31:27;;;;;;;1.55;1.20;;;;;;;15.31;100.00;100693.16;5188341;28;20026;-81
2021/08/29 01:34:01;;;;;;;1.98;1.17;;;;;;;15.41;100.00;100692.59;5193572;28;20033;-81
2021/08/29 01:36:33;;;;;;;1.95;1.20;;;;;;;15.42;100.00;100701.34;5191174;28;20573;-81
2021/08/29 01:39:05;;;;;;;1.80;1.13;;;;;;;15.32;100.00;100693.09;5194342;28;20490;-81
2021/08/29 01:41:38;;;;;;;2.38;1.80;;;;;;;15.34;100.00;100693.84;5174162;28;20034;-81
2021/08/29 01:44:09;;;;;;;1.60;1.10;;;;;;;15.34;100.00;100688.56;5194463;28;20107;-81
2021/08/29 01:46:42;;;;;;;1.73;1.20;;;;;;;15.35;100.00;100687.66;5191585;28;20026;-81
2021/08/29 01:49:13;;;;;;;2.08;1.42;;;;;;;15.26;100.00;100695.16;5177066;28;20120;-81
2021/08/29 01:51:44;;;;;;;2.15;1.40;;;;;;;15.32;100.00;100690.44;5191276;28;20017;-81
2021/08/29 01:54:15;;;;;;;1.80;1.50;;;;;;;15.38;100.00;100687.47;5194252;28;20481;-81
2021/08/29 01:57:11;;;;;;;2.70;1.77;;;;;;;15.36;100.00;100689.34;5173598;28;20033;-81
2021/08/29 01:59:43;;;;;;;2.55;1.70;;;;;;;15.31;100.00;100688.75;5175491;28;20032;-81
2021/08/29 02:02:15;;;;;;;2.58;1.70;;;;;;;15.33;100.00;100689.50;5173470;28;20022;-81
2021/08/29 02:04:46;;;;;;;2.72;1.75;;;;;;;15.26;100.00;100685.47;5172691;28;20029;-82
2021/08/29 02:07:31;;;;;;;2.80;1.88;;;;;;;15.31;100.00;100686.13;5184043;28;20057;-81
2021/08/29 02:10:07;;;;;;;3.78;2.30;;;;;;;15.28;100.00;100683.63;5193208;28;20029;-81
2021/08/29 02:12:43;;;;;;;3.85;2.08;;;;;;;15.31;100.00;100686.13;5175981;28;20088;-82
2021/08/29 02:15:24;;;;;;;3.60;1.92;;;;;;;15.34;100.00;100685.94;5191043;28;20056;-81
2021/08/29 02:17:57;;;;;;;3.40;2.13;;;;;;;15.24;100.00;100684.72;5171535;28;20085;-81
2021/08/29 02:20:29;;;;;;;2.78;1.92;;;;;;;15.31;100.00;100680.84;5175755;28;20048;-81
2021/08/29 02:23:00;;;;;;;3.13;2.15;;;;;;;15.25;100.00;100677.66;5191202;28;20132;-81
2021/08/29 02:25:31;;;;;;;4.80;2.35;;;;;;;15.32;100.00;100676.44;5176889;28;20363;-81
2021/08/29 02:28:01;;;;;;;2.88;2.22;;;;;;;15.31;100.00;100680.84;5171086;28;20036;-81
2021/08/29 02:30:32;;;;;;;3.10;2.20;;;;;;;15.31;100.00;100675.56;5169012;28;20029;-81
2021/08/29 02:33:03;;;;;;;2.65;2.08;;;;;;;15.29;100.00;100677.44;5191943;28;20118;-81
2021/08/29 02:35:33;;;;;;;3.05;2.03;;;;;;;15.26;100.00;100677.59;5185957;28;20105;-81
2021/08/29 02:38:05;;;;;;;2.22;1.80;;;;;;;15.20;100.00;100675.25;5189549;28;20035;-81
2021/08/29 02:40:39;;;;;;;2.92;2.13;;;;;;;15.24;100.00;100671.56;5175732;28;20033;-82
2021/08/29 02:43:10;;;;;;;4.13;2.55;;;;;;;15.26;100.00;100674.09;5174558;28;20041;-81
2021/08/29 02:45:42;;;;;;;3.10;2.28;;;;;;;15.26;100.00;100674.94;5194432;28;20057;-81
2021/08/29 02:48:13;;;;;;;3.13;2.40;;;;;;;15.22;100.00;100676.03;5172420;28;20407;-81
2021/08/29 02:50:46;;;;;;;2.97;2.22;;;;;;;15.32;100.00;100674.66;5177136;28;20113;-81
2021/08/29 02:53:17;;;;;;;3.95;2.50;;;;;;;15.29;100.00;100671.31;5190089;28;20030;-81
2021/08/29 02:55:52;;;;;;;3.15;2.42;;;;;;;15.23;100.00;100669.84;5176000;28;20116;-81
2021/08/29 02:58:23;;;;;;;3.50;2.40;;;;;;;15.40;100.00;100668.97;5166050;28;20032;-81
2021/08/29 03:00:54;;;;;;;3.60;2.67;;;;;;;15.26;100.00;100671.44;5174461;28;20025;-80
2021/08/29 03:03:24;;;;;;;4.63;2.95;;;;;;;15.23;100.00;100667.22;5172222;28;20025;-81
2021/08/29 03:05:54;;;;;;;3.75;2.75;;;;;;;15.33;100.00;100664.97;5174077;28;20499;-81
2021/08/29 03:08:25;;;;;;;3.85;2.75;;;;;;;15.21;100.00;100665.59;5172568;28;20033;-81
2021/08/29 03:10:56;;;;;;;4.07;2.80;;;;;;;15.26;100.00;100668.81;5191209;28;20085;-81
2021/08/29 03:13:28;;;;;;;4.05;2.92;;;;;;;15.32;100.00;100672.00;5174430;28;20063;-81
2021/08/29 03:15:59;;;;;;;3.75;2.70;;;;;;;15.23;100.00;100661.09;5172122;28;20080;-81
2021/08/29 03:18:30;;;;;;;4.93;2.97;;;;;;;15.35;100.00;100658.69;5192229;28;20069;-81
2021/08/29 03:21:01;;;;;;;4.82;2.80;;;;;;;15.19;100.00;100663.03;5192153;28;20076;-81
2021/08/29 03:23:31;;;;;;;3.83;2.95;;;;;;;15.37;100.00;100658.59;5192521;28;20046;-81
2021/08/29 03:26:02;;;;;;;5.55;3.30;;;;;;;15.32;100.00;100661.47;5174060;28;20025;-81
2021/08/29 03:28:32;;;;;;;5.15;3.13;;;;;;;15.37;100.00;100658.59;5186254;28;20018;-81
2021/08/29 03:31:04;;;;;;;4.78;3.10;;;;;;;15.29;100.00;100658.16;5169349;28;20057;-81
2021/08/29 03:33:35;;;;;;;3.97;3.17;;;;;;;15.25;100.00;100648.69;5192935;28;20030;-80
2021/08/29 03:36:07;;;;;;;3.83;2.95;;;;;;;15.23;100.00;100658.44;5190985;28;20034;-81
2021/08/29 03:38:39;;;;;;;3.67;2.95;;;;;;;15.25;100.00;100652.19;5192712;28;20034;-81
2021/08/29 03:41:09;;;;;;;3.30;2.67;;;;;;;15.24;100.00;100653.13;5172775;28;20033;-81
2021/08/29 03:43:40;;;;;;;4.50;3.00;;;;;;;15.27;100.00;100647.69;5192376;28;20032;-81
2021/08/29 03:46:13;;;;;;;3.60;2.83;;;;;;;15.16;100.00;100647.38;5189182;28;20444;-81
2021/08/29 03:48:43;;;;;;;5.05;2.72;;;;;;;15.18;100.00;100645.53;5175642;28;20021;-81
2021/08/29 03:51:16;;;;;;;3.58;3.05;;;;;;;15.14;100.00;100648.41;5189279;28;20033;-81
2021/08/29 03:53:48;;;;;;;3.80;2.60;;;;;;;15.20;100.00;100643.66;5189282;28;20124;-80
2021/08/29 03:56:18;;;;;;;3.63;2.67;;;;;;;15.17;100.00;100643.81;5189668;28;20038;-81
2021/08/29 03:58:49;;;;;;;4.03;2.90;;;;;;;15.21;100.00;100645.34;5167947;28;20029;-82
2021/08/29 04:01:19;;;;;;;4.03;2.80;;;;;;;15.11;100.00;100641.53;5186302;28;20033;-81
2021/08/29 04:03:50;;;;;;;4.10;2.88;;;;;;;15.14;100.00;100640.50;5193239;28;20021;-81
2021/08/29 04:06:24;;;;;;;6.00;3.08;;;;;;;15.07;100.00;100640.00;5168075;28;20029;-82
2021/08/29 04:08:55;;;;;;;3.50;2.80;;;;;;;15.09;100.00;100646.03;5176084;28;20029;-81
2021/08/29 04:11:29;;;;;;;4.05;3.00;;;;;;;15.06;100.00;100635.66;5190727;28;20164;-81
2021/08/29 04:14:00;;;;;;;3.85;2.85;;;;;;;15.18;100.00;100640.25;5173440;28;20036;-80
2021/08/29 04:16:33;;;;;;;4.30;3.03;;;;;;;15.20;100.00;100642.81;5191320;28;20044;-81
2021/08/29 04:19:05;;;;;;;3.25;2.75;;;;;;;15.12;100.00;100643.22;5177650;28;20448;-80
2021/08/29 04:21:35;;;;;;;4.75;3.17;;;;;;;15.21;100.00;100639.25;5178172;28;20041;-81
2021/08/29 04:24:06;;;;;;;4.53;3.40;;;;;;;15.18;100.00;100640.25;5194304;28;20033;-81
2021/08/29 04:26:36;;;;;;;3.83;2.90;;;;;;;15.17;100.00;100635.09;5179353;28;20044;-79
2021/08/29 04:29:07;;;;;;;3.58;2.85;;;;;;;15.28;100.00;100635.34;5181254;28;20025;-81
2021/08/29 04:31:37;;;;;;;4.10;3.15;;;;;;;15.32;100.00;100632.50;5199383;28;20025;-81
2021/08/29 04:34:09;;;;;;;3.35;2.85;;;;;;;15.21;100.00;100632.19;5181100;28;20692;-81
2021/08/29 04:36:39;;;;;;;4.45;2.88;;;;;;;15.35;100.00;100629.69;5195880;28;20402;-79
2021/08/29 04:39:09;;;;;;;4.03;2.88;;;;;;;15.26;100.00;100630.19;5199647;28;20100;-81
2021/08/29 04:41:40;;;;;;;4.13;2.97;;;;;;;15.26;100.00;100627.56;5179474;28;20026;-81
2021/08/29 04:44:11;;;;;;;4.47;3.00;;;;;;;15.27;100.00;100628.38;5199845;28;20028;-81
2021/08/29 04:46:41;;;;;;;2.65;2.33;;;;;;;15.17;100.00;100641.19;5176093;28;20021;-79
2021/08/29 04:49:11;;;;;;;3.05;2.58;;;;;;;15.17;100.00;100632.47;5192488;28;20045;-81
2021/08/29 04:51:42;;;;;;;4.10;2.80;;;;;;;15.19;100.00;100634.06;5182297;28;20033;-81
2021/08/29 04:54:12;;;;;;;2.67;2.30;;;;;;;15.24;100.00;100634.69;5197087;28;20404;-80
2021/08/29 04:56:42;;;;;;;3.35;2.22;;;;;;;15.26;100.00;100638.09;5200235;28;20071;-81
2021/08/29 04:59:12;;;;;;;3.10;2.50;;;;;;;15.30;100.00;100641.41;5188308;28;20025;-81
2021/08/29 05:01:43;;;;;;;4.18;2.50;;;;;;;15.28;100.00;100645.88;5177922;28;20418;-81
2021/08/29 05:04:13;;;;;;;2.72;2.30;;;;;;;15.26;100.00;100639.84;5197967;28;20380;-81
2021/08/29 05:06:43;;;;;;;2.90;2.30;;;;;;;15.33;100.00;100644.75;5195531;28;20025;-81
2021/08/29 05:09:13;;;;;;;3.05;2.35;;;;;;;15.21;100.00;100653.25;5178204;28;20040;-79
2021/08/29 05:11:44;;;;;;;3.63;2.47;;;;;;;15.28;100.00;100649.38;5181784;28;20025;-79
2021/08/29 05:14:14;;;;;;;3.10;2.40;;;;;;;15.29;100.00;100648.47;5194771;28;20109;-81
2021/08/29 05:16:44;;;;;;;3.53;2.50;;;;;;;15.15;100.00;100650.97;5181448;28;20403;-80
2021/08/29 05:19:15;;;;;;;3.28;2.50;;;;;;;15.15;100.00;100656.22;5177535;28;20606;-79
2021/08/29 05:21:45;;;;;;;3.67;2.40;;;;;;;15.18;100.00;100650.78;5178212;28;20109;-81
2021/08/29 05:24:15;;;;;;;3.70;2.40;;;;;;;15.13;100.00;100644.94;5199116;28;20037;-81
2021/08/29 05:26:45;;;;;;;3.20;2.55;;;;;;;15.22;100.00;100648.84;5190057;28;20363;-80
2021/08/29 05:29:16;;;;;;;2.47;2.05;;;;;;;15.31;100.00;100643.97;5173898;28;20349;-80
2021/08/29 05:31:46;;;;;;;3.33;2.45;;;;;;;15.31;100.00;100643.97;5195837;28;20114;-79
2021/08/29 05:34:16;;;;;;;2.92;2.33;;;;;;;15.30;100.00;100642.28;5179011;28;20037;-80
2021/08/29 05:36:47;;;;;;;3.47;2.38;;;;;;;15.24;100.00;100645.22;5180631;28;20025;-79
2021/08/29 05:39:17;;;;;;;3.17;2.28;;;;;;;15.40;100.00;100646.09;5195749;28;20042;-81
2021/08/29 05:41:47;;;;;;;3.35;2.30;;;;;;;15.33;100.00;100634.22;5199053;28;20017;-80
2021/08/29 05:44:17;;;;;;;2.97;2.30;;;;;;;15.40;100.00;100646.09;5195140;28;20022;-81
2021/08/29 05:46:48;;;;;;;2.90;2.13;;;;;;;15.40;100.00;100643.47;5198009;28;20117;-81
2021/08/29 05:49:18;;;;;;;4.00;2.50;;;;;;;15.38;100.00;100647.97;5195457;28;20103;-81
2021/08/29 05:51:48;;;;;;;3.00;2.25;;;;;;;15.39;100.00;100654.09;5199244;28;20033;-81
2021/08/29 05:54:19;;;;;;;3.25;2.30;;;;;;;15.36;100.00;100649.00;5195055;28;20113;-81
2021/08/29 05:56:49;;;;;;;2.83;2.25;;;;;;;15.29;100.00;100653.75;5181689;28;20029;-80
2021/08/29 05:59:19;;;;;;;3.50;2.53;;;;;;;15.41;100.00;100653.09;5186752;28;20068;-79
2021/08/29 06:01:50;;;;;;;3.15;2.35;;;;;;;15.45;100.00;100651.13;5177050;28;20017;-81
2021/08/29 06:04:20;;;;;;;3.10;2.35;;;;;;;15.40;100.00;100658.44;5189771;28;20025;-81
2021/08/29 06:06:50;;;;;;;3.88;2.40;;;;;;;15.44;100.00;100647.66;5173147;28;20024;-81
2021/08/29 06:09:20;;;;;;;3.97;2.38;;;;;;;15.31;100.00;100651.88;5195888;28;20403;-81
2021/08/29 06:11:51;;;;;;;3.83;2.50;;;;;;;15.37;100.00;100648.91;5179699;28;20035;-80
2021/08/29 06:14:21;;;;;;;3.47;2.30;;;;;;;15.30;100.00;100654.56;5177296;28;20506;-80
2021/08/29 06:16:52;;;;;;;3.95;2.78;;;;;;;15.34;100.00;100651.72;5175690;28;20064;-80
2021/08/29 06:19:22;;;;;;;3.60;2.63;;;;;;;15.32;100.00;100648.31;5179462;28;20030;-80
2021/08/29 06:21:52;;;;;;;4.35;2.50;;;;;;;15.23;100.00;100653.19;5193726;28;20025;-80
2021/08/29 06:24:23;;;;;;;3.78;2.80;;;;;;;15.32;100.00;100648.31;5189900;28;20029;-80
2021/08/29 06:26:53;;;;;;;3.97;2.63;;;;;;;15.35;100.00;100647.31;5176794;28;20026;-80
2021/08/29 06:29:23;;;;;;;2.92;2.50;;;;;;;15.43;100.00;100643.31;5177018;28;20088;-80
2021/08/29 06:31:54;;;;;;;4.00;2.75;;;;;;;15.27;100.00;100638.91;5171180;28;20033;-81
2021/08/29 06:34:24;;;;;;;3.15;2.47;;;;;;;15.51;100.00;100643.75;5190386;28;20433;-80
2021/08/29 06:36:55;;;;;;;4.50;2.50;;;;;;;15.53;100.00;100635.78;5186329;28;20089;-80
2021/08/29 06:39:26;;;;;;;3.60;2.70;;;;;;;15.52;100.00;100639.34;5188363;28;20491;-80
2021/08/29 06:41:57;;;;;;;3.42;2.50;;;;;;;15.55;100.00;100647.91;5188883;28;20376;-81
2021/08/29 06:44:27;;;;;;;4.70;2.70;;;;;;;15.59;100.00;100640.69;5189948;28;20100;-81
2021/08/29 06:46:58;;;;;;;3.05;2.30;;;;;;;15.51;100.00;100633.22;5192899;28;20567;-80
2021/08/29 06:49:28;;;;;;;2.57;2.03;;;;;;;15.51;100.00;100640.28;5172400;28;20045;-80
2021/08/29 06:51:58;;;;;;;3.38;2.15;;;;;;;15.62;100.00;100635.25;5189542;28;20338;-81
2021/08/29 06:54:28;;;;;;;3.25;2.25;;;;;;;15.51;100.00;100635.84;5190286;28;20101;-80
2021/08/29 06:56:59;;;;;;;3.20;2.07;;;;;;;15.51;100.00;100640.28;5192765;28;20041;-80
2021/08/29 06:59:29;;;;;;;3.75;2.22;;;;;;;15.51;100.00;100642.91;5167315;28;20327;-80
2021/08/29 07:01:59;;;;;;;2.72;1.83;;;;;;;15.47;100.00;100638.72;5188279;28;20077;-81
2021/08/29 07:04:30;;;;;;;3.42;2.00;;;;;;;15.44;100.00;100637.13;5171778;28;20576;-79
2021/08/29 07:07:00;;;;;;;2.92;1.95;;;;;;;15.34;100.00;100641.19;5169540;28;20117;-81
2021/08/29 07:09:31;;;;;;;2.50;1.90;;;;;;;15.37;100.00;100638.38;5171855;28;20021;-81
2021/08/29 07:12:01;;;;;;;3.43;2.00;;;;;;;15.40;100.00;100635.56;5198191;28;20030;-81
2021/08/29 07:14:32;;;;;;;3.47;2.15;;;;;;;15.33;100.00;100644.75;5191795;28;20802;-79
2021/08/29 07:17:02;;;;;;;2.65;1.98;;;;;;;15.26;100.00;100648.63;5198375;28;20060;-81
2021/08/29 07:19:33;;;;;;;2.00;1.60;;;;;;;15.36;100.00;100641.09;5171888;28;20033;-79
2021/08/29 07:22:03;;;;;;;3.42;1.80;;;;;;;15.36;100.00;100644.56;5177493;28;20065;-81
2021/08/29 07:24:33;;;;;;;2.85;1.80;;;;;;;15.47;100.00;100638.72;5177253;28;20044;-80
2021/08/29 07:27:05;;;;;;;3.13;1.90;;;;;;;15.46;100.00;100651.06;5175214;28;20060;-81
2021/08/29 07:29:35;;;;;;;2.22;1.60;;;;;;;15.57;100.00;100651.31;5185289;28;20094;-80
2021/08/29 07:32:05;;;;;;;3.97;1.73;;;;;;;15.61;100.00;100644.09;5175775;28;20156;-81
2021/08/29 07:34:37;;;;;;;1.85;1.55;;;;;;;15.56;100.00;100652.25;5191746;28;20513;-79
2021/08/29 07:37:07;;;;;;;2.30;1.50;;;;;;;15.70;100.00;100648.88;5169052;28;20040;-81
2021/08/29 07:39:37;;;;;;;1.80;1.30;;;;;;;15.69;100.00;100642.72;5177412;28;20033;-81
2021/08/29 07:42:08;;;;;;;1.52;1.10;;;;;;;15.69;100.00;100645.38;5171575;28;20092;-81
2021/08/29 07:44:39;;;;;;;1.48;1.20;;;;;;;15.80;100.00;100650.03;5193408;28;20383;-81
2021/08/29 07:47:09;;;;;;;1.50;1.00;;;;;;;15.75;100.00;100642.41;5192510;28;20041;-81
2021/08/29 07:49:39;;;;;;;1.58;1.10;;;;;;;15.90;100.00;100644.16;5194493;28;20029;-79
2021/08/29 07:52:11;;;;;;;2.22;0.93;;;;;;;15.80;100.00;100640.38;5193654;28;20030;-81
2021/08/29 07:54:41;;;;;;;5.80;1.40;;;;;;;15.76;100.00;100651.16;5178438;28;20236;-81
2021/08/29 07:57:11;;;;;;;1.02;0.85;;;;;;;15.84;100.00;100647.16;5199687;28;20466;-79
2021/08/29 07:59:41;;;;;;;2.30;0.98;;;;;;;15.79;100.00;100643.94;5175177;28;20029;-80
2021/08/29 08:02:13;;;;;;;1.25;0.88;;;;;;;15.87;100.00;100641.72;5179262;28;20075;-81
2021/08/29 08:04:43;;;;;;;1.85;1.00;;;;;;;15.88;100.00;100638.13;5173363;28;20022;-80
2021/08/29 08:07:13;;;;;;;1.27;0.98;;;;;;;15.99;100.00;100635.75;5175320;28;20079;-80
2021/08/29 08:09:44;;;;;;;1.15;1.00;;;;;;;16.03;100.00;100632.00;5183003;28;20029;-81
2021/08/29 08:12:14;;;;;;;1.97;0.97;;;;;;;16.14;100.00;100636.66;5197022;28;20045;-81
2021/08/29 08:14:44;;;;;;;1.27;0.95;;;;;;;16.09;100.00;100642.22;5196947;28;20280;-81
2021/08/29 08:17:16;;;;;;;1.00;0.70;;;;;;;16.07;100.00;100643.22;5196370;28;20120;-82
2021/08/29 08:19:46;;;;;;;1.48;0.90;;;;;;;16.04;100.00;100646.03;5193146;28;20026;-80
2021/08/29 08:22:16;;;;;;;0.90;0.70;;;;;;;16.04;100.00;100649.53;5201537;28;20095;-82
2021/08/29 08:24:48;;;;;;;0.80;0.80;;;;;;;15.95;100.00;100649.19;5179093;28;20052;-81
2021/08/29 08:27:18;;;;;;;1.08;0.80;;;;;;;16.01;100.00;100648.88;5181039;28;20026;-81
2021/08/29 08:29:48;;;;;;;1.10;1.00;;;;;;;16.11;100.00;100650.88;5175985;28;20044;-81
2021/08/29 08:32:19;;;;;;;0.80;0.80;;;;;;;16.17;100.00;100661.06;5179770;28;20033;-81
2021/08/29 08:34:49;;;;;;;0.85;0.70;;;;;;;16.10;100.00;100654.47;5192131;28;20108;-81
2021/08/29 08:37:19;;;;;;;0.85;0.80;;;;;;;16.23;100.00;100655.44;5178666;28;20033;-81
2021/08/29 08:39:49;;;;;;;1.27;0.95;;;;;;;16.30;100.00;100659.44;5179113;28;20029;-81
2021/08/29 08:42:20;;;;;;;0.70;0.70;;;;;;;16.24;100.00;100659.78;5197448;28;20056;-81
2021/08/29 08:44:50;;;;;;;0.85;0.60;;;;;;;16.19;100.00;100663.63;5200987;28;20291;-81
2021/08/29 08:47:21;;;;;;;0.80;0.70;;;;;;;16.26;100.00;100659.69;5179119;28;20510;-80
2021/08/29 08:49:55;;;;;;;1.10;0.90;;;;;;;16.16;100.00;100659.38;5175694;28;20025;-81
2021/08/29 08:52:29;;;;;;;1.23;0.80;;;;;;;16.06;100.00;100654.72;5188320;28;20037;-82
2021/08/29 08:55:01;;;;;;;1.00;0.90;;;;;;;16.06;100.00;100663.47;5182011;28;20531;-81
2021/08/29 08:57:32;;;;;;;1.00;0.80;;;;;;;16.25;100.00;100658.84;5178891;28;20033;-81
2021/08/29 09:00:02;;;;;;;0.88;0.85;;;;;;;16.29;100.00;100657.75;5172668;28;20259;-81
2021/08/29 09:02:33;;;;;;;1.67;1.10;;;;;;;16.43;100.00;100660.47;5171191;28;20025;-81
2021/08/29 09:05:03;;;;;;;1.20;0.90;;;;;;;16.47;100.00;100662.00;5175982;28;20607;-81
2021/08/29 09:07:34;;;;;;;1.48;0.90;;;;;;;16.59;100.00;100669.16;5195461;28;20064;-82
2021/08/29 09:10:05;;;;;;;1.15;1.00;;;;;;;16.50;100.00;100666.22;5198345;28;20068;-81
2021/08/29 09:12:35;;;;;;;0.95;0.80;;;;;;;16.51;100.00;100660.00;5180238;28;20739;-82
2021/08/29 09:15:06;;;;;;;1.02;0.70;;;;;;;16.42;100.00;100663.19;5196551;28;20041;-81
2021/08/29 09:17:37;;;;;;;1.83;0.73;;;;;;;16.45;100.00;100661.25;5178615;28;20036;-81
2021/08/29 09:20:25;;;;;;;1.13;0.93;;;;;;;16.62;100.00;100663.75;5193238;28;20041;-81
2021/08/29 09:23:00;;;;;;;2.83;0.80;;;;;;;16.54;100.00;100662.50;5175591;28;20026;-81
2021/08/29 09:25:32;;;;;;;;;;;;;;;16.59;100.00;100661.25;5176663;28;20056;-80
2021/08/29 09:28:04;;;;;;;0.98;0.80;;;;;;;16.53;100.00;100650.25;5177974;28;19914;-81
2021/08/29 09:30:34;;;;;;;1.48;0.90;;;;;;;16.51;100.00;100655.59;5176072;28;20044;-81
2021/08/29 09:33:04;;;;;;;1.23;0.80;;;;;;;16.31;100.00;100658.50;5177112;28;20955;-81
2021/08/29 09:35:35;;;;;;;1.30;0.80;;;;;;;16.27;100.00;100670.19;5172280;28;20045;-81
2021/08/29 09:38:11;;;;;;;1.17;0.90;;;;;;;16.20;100.00;100671.44;5170295;28;20030;-80
2021/08/29 09:40:41;;;;;;;1.83;0.90;;;;;;;16.24;100.00;100667.69;5177367;28;20514;-80
2021/08/29 09:43:16;;;;;;;0.90;0.70;;;;;;;16.24;100.00;100667.69;5195823;28;20528;-81
2021/08/29 09:45:47;;;;;;;0.90;0.73;;;;;;;16.39;100.00;100664.22;5169388;28;20491;-81
2021/08/29 09:48:17;;;;;;;1.90;1.00;;;;;;;16.52;100.00;100662.56;5171667;28;20092;-82
2021/08/29 09:50:56;;;;;;;2.38;0.90;;;;;;;16.59;100.00;100663.06;5173003;28;20041;-81
2021/08/29 09:53:26;;;;;;;0.95;0.85;;;;;;;16.73;100.00;100661.31;5178533;28;20029;-82
2021/08/29 09:55:57;;;;;;;1.10;0.70;;;;;;;16.70;100.00;100664.13;5190994;28;20034;-81
2021/08/29 09:58:28;;;;;;;1.48;0.85;;;;;;;16.78;100.00;100664.53;5167801;28;20022;-82
2021/08/29 10:01:17;;;;;;;0.90;0.70;;;;;;;16.88;100.00;100657.75;5171112;28;20381;-82
2021/08/29 10:03:50;;;;;;;1.00;0.60;;;;;;;16.91;100.00;100665.47;5177906;28;20025;-82
2021/08/29 10:06:25;;;;;;;1.63;0.80;;;;;;;17.02;100.00;100655.13;5169225;28;20029;-81
2021/08/29 10:09:00;;;;;;;0.65;0.50;;;;;;;17.03;100.00;100654.19;5175812;28;20334;-81
2021/08/29 10:11:32;;;;;;;0.63;0.60;;;;;;;17.10;100.00;100658.13;5187821;28;20044;-82
2021/08/29 10:14:03;;;;;;;0.80;0.60;;;;;;;17.28;100.00;100652.59;5173137;28;20026;-81
2021/08/29 10:16:34;;;;;;;1.98;0.63;;;;;;;17.37;100.00;100648.56;5188391;28;20114;-81
2021/08/29 10:19:05;;;;;;;0.68;0.50;;;;;;;17.69;100.00;100647.41;5180684;28;20596;-82
2021/08/29 10:21:36;;;;;;;0.77;0.60;;;;;;;17.89;100.00;100647.84;5178352;28;20149;-80
2021/08/29 10:24:07;;;;;;;0.90;0.65;;;;;;;17.90;100.00;100646.91;5196966;28;20048;-81
2021/08/29 10:26:41;;;;;;;0.65;0.60;;;;;;;17.85;100.00;100648.13;5174819;28;20071;-82
2021/08/29 10:29:19;;;;;;;0.63;0.60;;;;;;;17.90;100.00;100648.66;5184799;28;20096;-82
2021/08/29 10:31:55;;;;;;;0.80;0.50;;;;;;;17.83;100.00;100644.75;5193178;28;20041;-82
2021/08/29 10:34:27;;;;;;;1.27;0.68;;;;;;;17.67;100.00;100641.38;5168832;28;20030;-82
2021/08/29 10:36:58;;;;;;;0.73;0.50;;;;;;;17.83;100.00;100652.66;5174004;28;20033;-83
2021/08/29 10:39:29;;;;;;;0.45;0.40;;;;;;;18.01;100.00;100646.19;5177170;28;20571;-82
2021/08/29 10:42:00;;;;;;;0.60;0.38;;;;;;;17.84;100.00;100649.91;5168429;28;20037;-82
2021/08/29 10:44:31;;;;;;;0.60;0.55;;;;;;;17.87;100.00;100647.09;5183981;28;20499;-82
2021/08/29 10:47:02;;;;;;;0.63;0.45;;;;;;;17.81;100.00;100657.22;5173572;28;20045;-82
2021/08/29 10:49:34;;;;;;;0.80;0.57;;;;;;;17.69;100.00;100650.88;5192498;28;20030;-82
2021/08/29 10:52:05;;;;;;;0.52;0.50;;;;;;;17.67;100.00;100651.94;5191152;28;20105;-82
2021/08/29 10:54:49;;;;;;;0.50;0.40;;;;;;;17.80;100.00;100653.69;5172375;28;20172;-82
2021/08/29 10:57:49;;;;;;;1.00;0.55;;;;;;;17.79;100.00;100659.94;5170257;28;20037;-82
2021/08/29 11:00:27;;;;;;;0.70;0.50;;;;;;;17.63;100.00;100653.94;5180503;28;20061;-81
2021/08/29 11:02:57;;;;;;;0.57;0.45;;;;;;;17.60;100.00;100651.47;5172068;28;20044;-82
2021/08/29 11:05:27;;;;;;;1.15;0.60;;;;;;;17.90;100.00;100653.97;5182889;28;20029;-82
2021/08/29 11:07:58;;;;;;;0.87;0.57;;;;;;;18.16;100.00;100656.63;5169798;28;20258;-82
2021/08/29 11:10:37;;;;;;;3.88;0.60;;;;;;;18.61;100.00;100648.31;5187529;28;20040;-82
2021/08/29 11:13:31;;;;;;;0.45;0.43;;;;;;;18.61;100.00;100648.31;5168708;28;20037;-82
2021/08/29 11:16:09;;;;;;;1.00;0.57;;;;;;;18.49;100.00;100648.31;5171888;28;20040;-82
2021/08/29 11:19:01;;;;;;;0.70;0.52;;;;;;;18.35;100.00;100645.72;5188923;28;20566;-82
2021/08/29 11:21:34;;;;;;;0.60;0.50;;;;;;;17.99;100.00;100640.16;5188580;28;20038;-81
2021/08/29 11:24:06;;;;;;;0.63;0.40;;;;;;;17.81;100.00;100652.75;5189582;28;20045;-81
2021/08/29 11:26:43;;;;;;;0.50;0.50;;;;;;;17.92;100.00;100644.13;5173134;28;20103;-81
2021/08/29 11:29:41;;;;;;;0.57;0.50;;;;;;;18.24;100.00;100642.88;5163187;28;20038;-81
2021/08/29 11:32:32;;;;;;;1.15;0.70;;;;;;;18.44;100.00;100645.97;5186907;28;20033;-82
2021/08/29 11:35:09;;;;;;;0.90;0.50;;;;;;;18.49;100.00;100649.13;5181959;28;20065;-82
2021/08/29 11:37:40;;;;;;;0.57;0.57;;;;;;;18.26;100.00;100643.63;5169107;28;20034;-81
2021/08/29 11:40:12;;;;;;;1.17;0.63;;;;;;;18.36;100.00;100634.19;5168255;28;20436;-82